Flight Track Log - Related Links

Times and Time Zones

All times are in EDT time to prevent confusion due to time zone crossing. See the AAL832 flight status page for this flight to view local times or setup timezone preferences in your user account.

Time Position Orientation Groundspeed Altitude Reporting Facility
EDT Latitude Longitude Course Direction KTS MPH feet Rate Location/Type
Thu 12:34:33 PM 33.9311 -118.4661 46° Northeast 202 232 1,800  Level Los Angeles Center
Thu 12:35:35 PM 33.9069 -118.5431 249° West 246 283 3,000 1,548 Climbing Los Angeles Center
Thu 12:36:00 PM 34.1242 -118.0850 59° Northeast  Level FlightAware Approximate
Thu 12:36:37 PM 33.8614 -118.6122 232° Southwest 278 320 5,000  Level Los Angeles Center
Thu 12:37:00 PM 34.1878 -117.9579 59° Northeast  Level FlightAware Approximate
Thu 12:37:40 PM 33.8122 -118.5611 139° Southeast 280 322 7,000  Level Los Angeles Center
Thu 12:38:00 PM 34.2513 -117.8307 59° Northeast  Level FlightAware Approximate
Thu 12:38:42 PM 33.8689 -118.4792 50° Northeast 321 369 9,300  Level Los Angeles Center
Thu 12:39:00 PM 34.3316 -117.7189 46° Northeast  Level FlightAware Approximate
Thu 12:39:44 PM 33.9381 -118.4289 31° Northeast 318 366 10,900  Level Los Angeles Center
Thu 12:40:46 PM 33.9917 -118.3319 56° Northeast 343 395 13,100 2,081 Climbing Los Angeles Center
Thu 12:41:48 PM 34.0692 -118.2161 51° Northeast 370 426 15,200 1,597 Climbing Los Angeles Center
Thu 12:42:50 PM 34.1319 -118.1017 56° Northeast 400 460 16,400 2,081 Climbing Los Angeles Center
Thu 12:43:52 PM 34.1983 -117.9847 56° Northeast 419 482 19,500 2,448 Climbing Los Angeles Center
Thu 12:44:55 PM 34.2600 -117.8708 57° Northeast 408 470 21,500 1,776 Climbing Los Angeles Center
Thu 12:45:57 PM 34.3264 -117.7539 55° Northeast 419 482 23,200 1,548 Climbing Los Angeles Center
Thu 12:46:59 PM 34.4086 -117.6344 50° Northeast 437 503 24,700 1,306 Climbing Los Angeles Center
Thu 12:48:01 PM 34.4711 -117.5431 50° Northeast 440 506 25,900 1,279 Climbing Los Angeles Center
Thu 12:49:15 PM 34.5675 -117.4031 50° Northeast 453 521 27,600 1,533 Climbing Los Angeles Center
Thu 12:50:18 PM 34.6825 -117.2369 50° Northeast 461 531 29,400 1,344 Climbing Los Angeles Center
Thu 12:51:20 PM 34.7653 -117.1142 51° Northeast 469 540 30,400 968 Climbing Los Angeles Center
Thu 12:52:22 PM 34.8503 -116.9906 50° Northeast 477 549 31,400 1,113 Climbing Los Angeles Center
Thu 12:53:24 PM 34.9369 -116.8639 50° Northeast 487 560 32,700 1,258 Climbing Los Angeles Center
Thu 12:54:26 PM 35.0400 -116.7103 51° Northeast 490 564 34,000 1,056 Climbing Los Angeles Center
Thu 12:55:29 PM 35.1275 -116.5844 50° Northeast 491 565 34,900 912 Climbing Los Angeles Center
Thu 12:56:31 PM 35.2144 -116.4569 50° Northeast 490 564 35,900 871 Climbing Los Angeles Center
Thu 12:57:33 PM 35.3006 -116.3314 50° Northeast 487 560 36,700 532 Climbing Los Angeles Center
Thu 12:58:35 PM 35.3883 -116.2019 50° Northeast 494 568 37,000 145 Climbing Los Angeles Center
Thu 12:59:37 PM 35.4908 -116.0467 51° Northeast 492 566 37,000  Level Los Angeles Center
Thu 01:00:39 PM 35.5778 -115.9203 50° Northeast 488 562 37,000  Level Los Angeles Center
Thu 01:01:42 PM 35.6661 -115.7847 51° Northeast 488 562 37,000  Level Los Angeles Center
Thu 01:02:44 PM 35.7514 -115.6561 51° Northeast 488 562 37,000  Level Los Angeles Center
Thu 01:03:46 PM 35.8361 -115.5269 51° Northeast 488 562 37,000  Level Los Angeles Center
Thu 01:04:48 PM 35.9211 -115.3983 51° Northeast 488 562 37,000  Level Los Angeles Center
Thu 01:05:50 PM 36.0217 -115.2472 51° Northeast 477 549 37,000  Level Los Angeles Center
Thu 01:06:52 PM 36.1003 -115.1153 54° Northeast 479 551 37,000  Level Los Angeles Center
Thu 01:07:54 PM 36.1681 -114.9692 60° Northeast 491 565 37,000  Level Los Angeles Center
Thu 01:08:56 PM 36.2358 -114.8258 60° Northeast 489 563 37,000  Level Los Angeles Center
Thu 01:09:59 PM 36.3025 -114.6811 60° Northeast 487 560 37,000  Level Los Angeles Center
Thu 01:11:01 PM 36.3839 -114.5075 60° Northeast 487 560 37,000  Level Los Angeles Center
Thu 01:12:03 PM 36.4506 -114.3625 60° Northeast 486 559 37,000  Level Los Angeles Center
Thu 01:13:05 PM 36.5178 -114.2164 60° Northeast 484 557 37,000  Level Los Angeles Center
Thu 01:14:07 PM 36.5822 -114.0731 61° Northeast 480 552 37,000  Level Los Angeles Center
Thu 01:15:09 PM 36.6494 -113.9275 60° Northeast 483 556 37,000  Level Los Angeles Center
Thu 01:16:11 PM 36.7292 -113.7517 60° Northeast 486 559 37,000  Level Los Angeles Center
Thu 01:17:26 PM 36.8086 -113.5778 60° Northeast 484 557 37,000  Level Los Angeles Center
Thu 01:18:28 PM 36.8744 -113.4303 61° Northeast 485 558 37,000  Level Los Angeles Center
Thu 01:19:30 PM 36.9394 -113.2800 62° Northeast 491 565 37,000  Level Los Angeles Center
Thu 01:20:31 PM 36.9933 -113.1617 60° Northeast 491 565 37,000  Level Los Angeles Center
Thu 01:21:34 PM 37.0578 -113.0142 61° Northeast 487 560 37,000  Level Los Angeles Center
Thu 01:22:36 PM 37.1503 -112.8053 61° Northeast 493 567 37,000  Level Los Angeles Center
Thu 01:23:38 PM 37.2153 -112.6561 61° Northeast 493 567 37,000  Level Los Angeles Center
Thu 01:24:41 PM 37.2803 -112.5064 61° Northeast 493 567 37,000  Level Los Angeles Center
Thu 01:25:43 PM 37.3461 -112.3558 61° Northeast 497 572 37,000  Level Los Angeles Center
Thu 01:26:45 PM 37.4242 -112.1761 61° Northeast 492 566 37,000  Level Los Angeles Center
Thu 01:27:47 PM 37.4894 -112.0250 61° Northeast 495 570 37,000  Level Los Angeles Center
Thu 01:28:49 PM 37.5619 -111.8794 58° Northeast 492 566 37,000  Level Los Angeles Center
Thu 01:29:51 PM 37.6369 -111.7358 57° Northeast 491 565 37,000  Level Los Angeles Center
Thu 01:30:53 PM 37.7092 -111.5917 58° Northeast 490 564 37,000  Level Los Angeles Center
Thu 01:32:07 PM 37.8111 -111.3894 57° Northeast 491 565 37,000  Level Denver Center
Thu 01:33:21 PM 37.8994 -111.2147 57° Northeast 492 566 37,000  Level Salt Lake Center
Thu 01:34:23 PM 37.9728 -111.0700 57° Northeast 490 564 37,000  Level Salt Lake Center
Thu 01:35:25 PM 38.0489 -110.9158 58° Northeast 491 565 37,000  Level Salt Lake Center
Thu 01:36:27 PM 38.1192 -110.7772 57° Northeast 489 563 37,000  Level Salt Lake Center
Thu 01:37:17 PM 38.1886 -110.6375 58° Northeast 488 562 37,000  Level Denver Center
Thu 01:38:19 PM 38.2561 -110.4972 58° Northeast 486 559 37,000  Level Denver Center
Thu 01:39:22 PM 38.3375 -110.3339 58° Northeast 488 562 37,000  Level Denver Center
Thu 01:40:24 PM 38.4042 -110.1944 59° Northeast 481 554 37,000  Level Denver Center
Thu 01:41:26 PM 38.4739 -110.0542 58° Northeast 487 560 37,000  Level Denver Center
Thu 01:42:28 PM 38.5303 -109.8756 68° East 490 564 37,000  Level Denver Center
Thu 01:43:30 PM 38.5681 -109.7128 73° East 496 571 37,000  Level Denver Center
Thu 01:44:32 PM 38.6103 -109.5222 74° East 498 573 37,000  Level Denver Center
Thu 01:45:34 PM 38.6478 -109.3597 73° East 498 573 37,000  Level Denver Center
Thu 01:46:35 PM 38.6844 -109.1992 74° East 495 570 37,000  Level Denver Center
Thu 01:47:38 PM 38.7275 -109.0128 73° East 491 565 37,000  Level Denver Center
Thu 01:48:40 PM 38.7692 -108.8256 74° East 490 564 37,000  Level Denver Center
Thu 01:49:42 PM 38.8064 -108.6658 73° East 490 564 37,000  Level Denver Center
Thu 01:50:44 PM 38.8467 -108.4794 74° East 488 562 37,000  Level Denver Center
Thu 01:51:46 PM 38.8822 -108.3172 74° East 494 568 37,000  Level Denver Center
Thu 01:52:48 PM 38.9233 -108.1308 74° East 489 563 37,000  Level Denver Center
Thu 01:53:51 PM 38.9586 -107.9742 74° East 482 555 37,000  Level Denver Center
Thu 01:54:53 PM 38.9978 -107.7903 75° East 480 552 37,000  Level Denver Center
Thu 01:55:55 PM 39.0311 -107.6350 75° East 474 545 37,000  Level Denver Center
Thu 01:56:57 PM 39.0703 -107.4542 74° East 470 541 37,000  Level Denver Center
Thu 01:57:59 PM 39.1033 -107.3008 74° East 466 536 37,000  Level Denver Center
Thu 01:59:01 PM 39.1553 -107.1297 69° East 460 529 37,000  Level Denver Center
Thu 02:00:03 PM 39.2006 -106.9842 68° East 458 527 37,000  Level Denver Center
Thu 02:01:05 PM 39.2542 -106.8128 68° East 461 531 37,000  Level Denver Center
Thu 02:02:07 PM 39.2997 -106.6650 68° East 465 535 37,000  Level Denver Center
Thu 02:03:09 PM 39.3522 -106.4917 69° East 464 534 37,000  Level Denver Center
Thu 02:04:11 PM 39.3972 -106.3419 69° East 465 535 37,000  Level Denver Center
Thu 02:05:13 PM 39.4489 -106.1706 69° East 470 541 37,000  Level Denver Center
Thu 02:06:15 PM 39.4936 -106.0244 68° East 466 536 37,000  Level Denver Center
Thu 02:07:17 PM 39.5378 -105.8658 70° East 467 537 37,000  Level Denver Center
Thu 02:08:19 PM 39.5889 -105.6753 71° East 466 536 37,000  Level Denver Center
Thu 02:09:22 PM 39.6314 -105.5186 71° East 459 528 37,000  Level Denver Center
Thu 02:10:24 PM 39.6717 -105.3603 72° East 462 532 37,000  Level Denver Center
Thu 02:11:26 PM 39.7119 -105.2050 71° East 453 521 37,000  Level Denver Center
Thu 02:12:28 PM 39.7533 -105.0467 71° East 459 528 37,000  Level Denver Center
Thu 02:13:30 PM 39.7939 -104.8911 71° East 452 520 37,000  Level Denver Center
Thu 02:14:32 PM 39.8358 -104.7319 71° East 457 526 37,000  Level Denver Center
Thu 02:15:34 PM 39.8764 -104.5728 72° East 458 527 37,000  Level Denver Center
Thu 02:16:36 PM 39.9244 -104.3811 72° East 470 541 37,000  Level Denver Center
Thu 02:17:38 PM 39.9644 -104.2228 72° East 451 519 37,000  Level Denver Center
Thu 02:18:40 PM 40.0025 -104.0650 72° East 450 518 37,000  Level Denver Center
Thu 02:19:42 PM 40.0419 -103.9081 72° East 448 516 37,000  Level Denver Center
Thu 02:20:44 PM 40.0808 -103.7500 72° East 448 516 37,000  Level Denver Center
Thu 02:21:46 PM 40.1192 -103.5964 72° East 439 505 37,000  Level Denver Center
Thu 02:22:48 PM 40.1664 -103.4094 72° East 452 520 37,000  Level Denver Center
Thu 02:23:50 PM 40.2039 -103.2542 72° East 449 517 37,000  Level Denver Center
Thu 02:24:53 PM 40.2411 -103.0997 72° East 448 516 37,000 240 Level Denver Center
Thu 02:25:55 PM 40.2792 -102.9411 72° East 455 524 37,500 629 Climbing Denver Center
Thu 02:26:57 PM 40.3167 -102.7814 73° East 459 528 38,300 677 Climbing Denver Center
Thu 02:27:59 PM 40.3575 -102.6086 73° East 461 531 38,900 339 Climbing Denver Center
Thu 02:29:01 PM 40.3989 -102.4286 73° East 462 532 39,000 48 Climbing Denver Center
Thu 02:30:03 PM 40.4356 -102.2753 73° East 460 529 39,000  Level Denver Center
Thu 02:31:05 PM 40.4706 -102.1206 73° East 461 531 39,000  Level Denver Center
Thu 02:32:07 PM 40.5125 -101.9414 73° East 460 529 39,000  Level Denver Center
Thu 02:33:09 PM 40.5519 -101.7903 71° East 459 528 39,000  Level Denver Center
Thu 02:34:11 PM 40.5983 -101.6142 71° East 457 526 39,000  Level Denver Center
Thu 02:35:13 PM 40.6372 -101.4639 71° East 454 522 39,000  Level Denver Center
Thu 02:36:15 PM 40.6811 -101.2897 72° East 451 519 39,000  Level Denver Center
Thu 02:37:17 PM 40.7192 -101.1411 71° East 448 516 39,000  Level Denver Center
Thu 02:38:19 PM 40.7556 -100.9936 72° East 445 512 39,000  Level Denver Center
Thu 02:39:22 PM 40.7986 -100.8217 72° East 445 512 39,000  Level Denver Center
Thu 02:40:24 PM 40.8411 -100.6567 71° East 446 513 39,000  Level Denver Center
Thu 02:41:26 PM 40.8831 -100.4850 72° East 447 514 39,000  Level Denver Center
Thu 02:42:28 PM 40.9186 -100.3386 72° East 441 507 39,000  Level Denver Center
Thu 02:43:30 PM 40.9606 -100.1650 72° East 444 511 39,000  Level Denver Center
Thu 02:44:32 PM 40.9964 -100.0167 72° East 443 510 39,000  Level Denver Center
Thu 02:45:34 PM 41.0400 -99.8456 71° East 442 509 39,000  Level Denver Center
Thu 02:46:36 PM 41.0786 -99.6994 71° East 439 505 39,000  Level Denver Center
Thu 02:47:38 PM 41.1222 -99.5297 71° East 438 504 39,000  Level Denver Center
Thu 02:48:40 PM 41.1567 -99.3956 71° East 433 498 39,000  Level Denver Center
Thu 02:49:55 PM 41.2028 -99.2128 71° East 434 499 39,000  Level Denver Center
Thu 02:50:57 PM 41.2450 -99.0456 71° East 436 502 39,000  Level Denver Center
Thu 02:51:27 PM 41.2631 -98.9783 70° East 438 504 39,000  Level Minneapolis Center
Thu 02:52:28 PM 41.3019 -98.8231 72° East 440 506 39,000  Level Minneapolis Center
Thu 02:53:31 PM 41.3381 -98.6683 73° East 440 506 39,000  Level Minneapolis Center
Thu 02:54:31 PM 41.3842 -98.4811 72° East 442 509 39,000  Level Minneapolis Center
Thu 02:55:35 PM 41.4206 -98.3328 72° East 446 513 39,000  Level Minneapolis Center
Thu 02:56:36 PM 41.4586 -98.1750 72° East 447 514 39,000  Level Minneapolis Center
Thu 02:57:39 PM 41.5003 -98.0056 72° East 451 519 39,000  Level Minneapolis Center
Thu 02:58:39 PM 41.5733 -97.8700 54° Northeast 455 524 39,000  Level Minneapolis Center
Thu 02:59:43 PM 41.6633 -97.7489 45° Northeast 456 525 39,000  Level Minneapolis Center
Thu 03:00:44 PM 41.7686 -97.6053 45° Northeast 451 519 39,000  Level Minneapolis Center
Thu 03:01:48 PM 41.8522 -97.4856 47° Northeast 443 510 39,000  Level Minneapolis Center
Thu 03:02:49 PM 41.9347 -97.3644 47° Northeast 441 507 39,000  Level Minneapolis Center
Thu 03:03:52 PM 42.0181 -97.2442 47° Northeast 439 505 39,000  Level Minneapolis Center
Thu 03:05:05 PM 42.0994 -97.1247 47° Northeast 435 501 39,000  Level Minneapolis Center
Thu 03:06:08 PM 42.1986 -96.9806 47° Northeast 435 501 39,000  Level Minneapolis Center
Thu 03:07:09 PM 42.2803 -96.8583 48° Northeast 437 503 39,000  Level Minneapolis Center
Thu 03:08:13 PM 42.3700 -96.7089 51° Northeast 429 494 39,000  Level Minneapolis Center
Thu 03:09:14 PM 42.3825 -96.5375 84° East 454 522 39,000  Level Minneapolis Center
Thu 03:10:15 PM 42.3908 -96.3694 86° East 449 517 39,000  Level Minneapolis Center
Thu 03:11:19 PM 42.3989 -96.2003 86° East 448 516 39,000  Level Minneapolis Center
Thu 03:12:32 PM 42.4075 -96.0278 86° East 453 521 39,000  Level Minneapolis Center
Thu 03:13:33 PM 42.4153 -95.8558 86° East 456 525 39,000  Level Minneapolis Center
Thu 03:14:36 PM 42.4244 -95.6506 86° East 455 524 39,000  Level Minneapolis Center
Thu 03:15:37 PM 42.4319 -95.4417 87° East 459 528 39,000  Level Minneapolis Center
Thu 03:16:41 PM 42.4397 -95.2708 86° East 455 524 39,000  Level Minneapolis Center
Thu 03:17:44 PM 42.4467 -95.0972 87° East 459 528 39,000  Level Minneapolis Center
Thu 03:18:57 PM 42.4522 -94.9233 87° East 460 529 39,000  Level Minneapolis Center
Thu 03:20:00 PM 42.4597 -94.7122 87° East 467 537 39,000  Level Minneapolis Center
Thu 03:21:00 PM 42.4658 -94.5392 87° East 463 533 39,000  Level Minneapolis Center
Thu 03:22:04 PM 42.4722 -94.3300 88° East 462 532 39,000  Level Minneapolis Center
Thu 03:23:05 PM 42.4769 -94.1647 88° East 463 533 39,000  Level Minneapolis Center
Thu 03:24:09 PM 42.4822 -93.9914 88° East 464 534 39,000  Level Minneapolis Center
Thu 03:25:09 PM 42.4867 -93.8192 88° East 462 532 39,000  Level Minneapolis Center
Thu 03:26:13 PM 42.4931 -93.6133 88° East 462 532 39,000  Level Minneapolis Center
Thu 03:27:13 PM 42.4983 -93.4386 88° East 466 536 39,000  Level Minneapolis Center
Thu 03:28:17 PM 42.5019 -93.2686 88° East 459 528 39,000  Level Minneapolis Center
Thu 03:29:11 PM 42.5069 -93.0967 88° East 459 528 39,000  Level Chicago Center
Thu 03:30:13 PM 42.5097 -92.9275 89° East 454 522 39,000 -435 Level Chicago Center
Thu 03:31:15 PM 42.5125 -92.7569 89° East 456 525 38,100 -919 Descending Chicago Center
Thu 03:32:17 PM 42.5161 -92.5847 88° East 461 531 37,100 -1,016 Descending Chicago Center
Thu 03:33:19 PM 42.5181 -92.3758 89° East 468 539 36,000 -968 Descending Chicago Center
Thu 03:34:21 PM 42.5217 -92.2028 88° East 466 536 35,100 -919 Descending Chicago Center
Thu 03:35:23 PM 42.5236 -92.0300 89° East 466 536 34,100 -919 Descending Chicago Center
Thu 03:36:25 PM 42.5244 -91.8536 90° East 473 544 33,200 -1,008 Descending Chicago Center
Thu 03:37:28 PM 42.5261 -91.6397 89° East 483 556 32,000 -1,008 Descending Chicago Center
Thu 03:38:30 PM 42.5256 -91.4592 90° East 488 562 31,100 -871 Descending Chicago Center
Thu 03:39:32 PM 42.5267 -91.2822 89° East 479 551 30,200 -919 Descending Chicago Center
Thu 03:40:34 PM 42.5261 -91.1033 90° East 482 555 29,200 -581 Descending Chicago Center
Thu 03:41:36 PM 42.5253 -90.8875 90° East 483 556 29,000 -97 Descending Chicago Center
Thu 03:42:38 PM 42.5244 -90.7072 90° East 483 556 29,000 -548 Level Chicago Center
Thu 03:44:42 PM 42.5219 -90.3508 90° East 478 550 27,300 -871 Descending Chicago Center
Thu 03:45:44 PM 42.5219 -90.1767 90° East 470 541 26,300 -1,065 Descending Chicago Center
Thu 03:46:46 PM 42.5183 -89.9703 91° East 463 533 25,100 -1,065 Descending Chicago Center
Thu 03:47:48 PM 42.5022 -89.8072 98° East 452 520 24,100 -960 Descending Chicago Center
Thu 03:48:51 PM 42.4867 -89.6411 97° East 444 511 23,100 -1,008 Descending Chicago Center
Thu 03:49:53 PM 42.4686 -89.4508 97° East 436 502 22,000 -1,016 Descending Chicago Center
Thu 03:50:55 PM 42.4531 -89.2892 97° East 432 497 21,000 -1,306 Descending Chicago Center
Thu 03:51:57 PM 42.4386 -89.1294 97° East 428 493 19,300 -1,984 Descending Chicago Center
Thu 03:52:59 PM 42.4222 -88.9778 98° East 411 473 16,900 -2,226 Descending Chicago Center
Thu 03:54:01 PM 42.4072 -88.8281 98° East 403 464 14,700 -2,177 Descending Chicago Center
Thu 03:55:03 PM 42.3919 -88.6669 97° East 373 429 12,400 -1,984 Descending Chicago Center
Thu 03:56:05 PM 42.3783 -88.5361 98° East 355 409 10,600 -1,161 Descending Chicago Center
Thu 03:57:07 PM 42.3525 -88.4231 107° East 320 368 10,000 -290 Descending Chicago Center
Thu 03:58:09 PM 42.3039 -88.3267 124° Southeast 317 365 10,000 -528 Level Chicago Center
Thu 03:59:12 PM 42.2500 -88.2372 129° Southeast 311 358 8,900 -1,248 Descending Chicago Center
Thu 04:00:14 PM 42.1928 -88.1419 129° Southeast 277 319 7,400 -919 Descending Chicago Center
Thu 04:01:16 PM 42.1386 -88.0811 140° Southeast 252 290 7,000 -224 Descending Chicago Center
Thu 04:02:01 PM 42.1000 -88.0333 137° Southeast 232 267 7,000  Level Chicago TRACON
Thu 04:03:01 PM 42.1000 -87.9500 90° East 237 273 7,000  Level Chicago TRACON
Thu 04:04:01 PM 42.1000 -87.8667 90° East 215 247 7,000 -300 Level Chicago TRACON
Thu 04:05:01 PM 42.0833 -87.7833 105° East 209 241 6,400 -850 Descending Chicago TRACON
Thu 04:06:01 PM 42.0833 -87.7167 90° East 204 235 5,300 -1,100 Descending Chicago TRACON
Thu 04:07:01 PM 42.0833 -87.6500 90° East 200 230 4,200 -700 Descending Chicago TRACON
Thu 04:08:01 PM 42.0333 -87.6667 194° South 197 227 3,900 -700 Descending Chicago TRACON
Thu 04:09:01 PM 42.0167 -87.7333 251° West 185 213 2,800 -793 Descending Chicago TRACON
Thu 04:10:02 PM 42.0000 -87.7833 246° West 182 209 2,300 -694 Descending Chicago TRACON
Thu 04:11:02 PM 42.0000 -87.8500 270° West 162 186 1,400 -900 Descending Chicago TRACON

Login

Don't have an account? Register now (free) for customized features, flight alerts, and more!